Time;durP1;ratioP1;P1;durP2;ratioP2;P2;SDS_P1;SDS_P2;PMS_P1;PMS_P2;Temp;Humidity;BMP_temperature;BMP_pressure;BME280_temperature;BME280_humidity;BME280_pressure;Samples;Min_cycle;Max_cycle;Signal;HPM_P1;HPM_P2
2023/11/10 00:00:21;;;;;;;;;;;;;;;6.48;100.00;99380.78;5055098;28;19913;-40
2023/11/10 00:02:46;;;;;;;;;;;;;;;6.48;100.00;99388.81;5054398;28;19928;-41
2023/11/10 00:05:11;;;;;;;;;;;;;;;6.46;100.00;99382.81;5055311;28;19913;-41
2023/11/10 00:07:38;;;;;;;;;;;;;;;6.43;100.00;99393.91;5055085;28;20274;-41
2023/11/10 00:10:04;;;;;;;;;;;;;;;6.44;100.00;99384.84;5055145;28;19912;-41
2023/11/10 00:12:29;;;;;;;;;;;;;;;6.45;100.00;99389.16;5036363;28;19948;-41
2023/11/10 00:14:57;;;;;;;;;;;;;;;6.42;100.00;99382.34;5054924;28;19959;-41
2023/11/10 00:17:22;;;;;;;;;;;;;;;6.41;100.00;99395.91;5055020;28;19962;-41
2023/11/10 00:19:47;;;;;;;;;;;;;;;6.40;100.00;99395.09;5054859;28;19912;-41
2023/11/10 00:22:12;;;;;;;;;;;;;;;6.40;100.00;99391.56;5050974;28;20000;-40
2023/11/10 00:24:39;;;;;;;;;;;;;;;6.43;100.00;99393.91;5033847;28;19959;-38
2023/11/10 00:27:05;;;;;;;;;;;;;;;6.41;100.00;99382.56;5034398;28;20016;-39
2023/11/10 00:29:30;;;;;;;;;;;;;;;6.40;100.00;99386.22;5016319;28;20421;-41
2023/11/10 00:31:56;;;;;;;;;;;;;;;6.42;100.00;99379.69;5034280;28;19920;-40
2023/11/10 00:34:21;;;;;;;;;;;;;;;6.42;100.00;99374.34;5053766;28;20004;-41
2023/11/10 00:36:46;;;;;;;;;;;;;;;6.45;100.00;99373.13;5053945;28;19917;-41
2023/11/10 00:39:11;;;;;;;;;;;;;;;6.47;100.00;99377.25;5053637;28;20003;-41
2023/11/10 00:41:37;;;;;;;;;;;;;;;6.52;100.00;99360.66;5053456;28;19913;-40
2023/11/10 00:44:02;;;;;;;;;;;;;;;6.51;100.00;99359.00;5035447;28;19913;-40
2023/11/10 00:46:27;;;;;;;;;;;;;;;6.49;100.00;99364.53;5033355;28;19916;-40
2023/11/10 00:48:52;;;;;;;;;;;;;;;6.52;100.00;99364.16;5033637;28;20381;-41
2023/11/10 00:51:17;;;;;;;;;;;;;;;6.50;100.00;99357.34;5033609;28;20419;-39
2023/11/10 00:53:43;;;;;;;;;;;;;;;6.51;100.00;99359.00;5033168;28;20411;-41
2023/11/10 00:56:08;;;;;;;;;;;;;;;6.50;100.00;99362.69;5033595;28;20268;-41
2023/11/10 00:58:33;;;;;;;;;;;;;;;6.53;100.00;99367.66;5033229;28;19917;-40
2023/11/10 01:00:58;;;;;;;;;;;;;;;6.52;100.00;99360.66;5033440;28;20361;-40
2023/11/10 01:03:24;;;;;;;;;;;;;;;6.53;100.00;99346.25;5045401;28;20286;-40
2023/11/10 01:05:49;;;;;;;;;;;;;;;6.55;100.00;99355.75;5053078;28;19916;-39
2023/11/10 01:08:14;;;;;;;;;;;;;;;6.57;100.00;99358.25;5053158;28;19917;-40
2023/11/10 01:10:40;;;;;;;;;;;;;;;6.58;100.00;99349.19;5051719;28;20390;-38
2023/11/10 01:13:05;;;;;;;;;;;;;;;6.58;100.00;99352.72;5042766;28;19913;-40
2023/11/10 01:15:30;;;;;;;;;;;;;;;6.56;100.00;99346.72;5045743;28;19921;-38
2023/11/10 01:17:55;;;;;;;;;;;;;;;6.56;100.00;99352.06;5052421;28;19921;-40
2023/11/10 01:20:21;;;;;;;;;;;;;;;6.59;100.00;99348.19;5052936;28;20355;-39
2023/11/10 01:22:46;;;;;;;;;;;;;;;6.58;100.00;99344.69;5052768;28;20342;-40
2023/11/10 01:25:14;;;;;;;;;;;;;;;6.58;100.00;99350.03;5052957;28;20268;-40
2023/11/10 01:27:41;;;;;;;;;;;;;;;6.57;100.00;99342.19;5052658;28;20357;-39
2023/11/10 01:30:07;;;;;;;;;;;;;;;6.57;100.00;99318.16;5052637;28;19919;-40
2023/11/10 01:32:32;;;;;;;;;;;;;;;6.59;100.00;99340.16;5052947;28;19913;-40
2023/11/10 01:34:57;;;;;;;;;;;;;;;6.58;100.00;99338.50;5052363;28;19956;-40
2023/11/10 01:37:23;;;;;;;;;;;;;;;6.56;100.00;99329.88;5052134;28;19920;-41
2023/11/10 01:39:48;;;;;;;;;;;;;;;6.57;100.00;99326.97;5052620;28;20380;-41
2023/11/10 01:42:14;;;;;;;;;;;;;;;6.55;100.00;99333.53;5052611;28;20418;-41
2023/11/10 01:44:39;;;;;;;;;;;;;;;6.52;100.00;99334.75;5041465;28;20444;-38
2023/11/10 01:47:04;;;;;;;;;;;;;;;6.55;100.00;99341.56;5032343;28;19909;-40
2023/11/10 01:49:30;;;;;;;;;;;;;;;6.52;100.00;99340.09;5014641;28;19913;-41
2023/11/10 01:51:55;;;;;;;;;;;;;;;6.51;100.00;99332.28;5014941;28;20051;-41
2023/11/10 01:54:21;;;;;;;;;;;;;;;6.53;100.00;99335.56;5032201;28;20279;-40
2023/11/10 01:56:46;;;;;;;;;;;;;;;6.52;100.00;99340.09;5014420;28;20256;-41
2023/11/10 01:59:13;;;;;;;;;;;;;;;6.51;100.00;99337.63;5031516;28;19913;-41
2023/11/10 02:01:38;;;;;;;;;;;;;;;6.48;100.00;99338.03;5032546;28;19913;-38
2023/11/10 02:04:03;;;;;;;;;;;;;;;6.47;100.00;99328.34;5042670;28;19943;-41
2023/11/10 02:06:31;;;;;;;;;;;;;;;6.45;100.00;99333.88;5051879;28;19917;-40
2023/11/10 02:08:56;;;;;;;;;;;;;;;6.49;100.00;99334.31;5051824;28;19923;-40
2023/11/10 02:11:23;;;;;;;;;;;;;;;6.50;100.00;99335.97;5051297;28;19917;-40
2023/11/10 02:13:48;;;;;;;;;;;;;;;6.49;100.00;99342.34;5043510;28;19917;-41
2023/11/10 02:16:14;;;;;;;;;;;;;;;6.50;100.00;99341.31;5051848;28;19963;-41
2023/11/10 02:18:39;;;;;;;;;;;;;;;6.51;100.00;99342.97;5051900;28;20295;-41
2023/11/10 02:21:04;;;;;;;;;;;;;;;6.50;100.00;99352.00;5050646;28;20386;-41
2023/11/10 02:23:30;;;;;;;;;;;;;;;6.49;100.00;99337.00;5050677;28;19959;-41
2023/11/10 02:25:55;;;;;;;;;;;;;;;6.46;100.00;99348.91;5033632;28;20032;-41
2023/11/10 02:28:21;;;;;;;;;;;;;;;6.51;100.00;99341.13;5051931;28;19917;-42
2023/11/10 02:30:46;;;;;;;;;;;;;;;6.48;100.00;99352.22;5049686;28;19923;-39
2023/11/10 02:33:11;;;;;;;;;;;;;;;6.52;100.00;99348.13;5033861;28;19917;-39
2023/11/10 02:35:36;;;;;;;;;;;;;;;6.49;100.00;99345.84;5051415;28;19917;-40
2023/11/10 02:38:02;;;;;;;;;;;;;;;6.53;100.00;99335.56;5051216;28;20252;-40
2023/11/10 02:40:27;;;;;;;;;;;;;;;6.50;100.00;99352.00;5050358;28;19923;-41
2023/11/10 02:42:53;;;;;;;;;;;;;;;6.50;100.00;99352.84;5051638;28;19959;-40
2023/11/10 02:45:18;;;;;;;;;;;;;;;6.48;100.00;99365.56;5049659;28;20017;-40
2023/11/10 02:47:43;;;;;;;;;;;;;;;6.54;100.00;99358.63;5051216;28;19920;-41
2023/11/10 02:50:08;;;;;;;;;;;;;;;6.58;100.00;99365.22;5046191;28;19917;-41
2023/11/10 02:52:34;;;;;;;;;;;;;;;6.60;100.00;99369.38;5049657;28;19924;-38
2023/11/10 02:54:59;;;;;;;;;;;;;;;6.67;100.00;99358.75;5051501;28;19927;-40
2023/11/10 02:57:26;;;;;;;;;;;;;;;6.67;100.00;99358.75;5051369;28;19916;-41
2023/11/10 02:59:51;;;;;;;;;;;;;;;6.67;100.00;99358.75;5051246;28;19916;-41
2023/11/10 03:02:16;;;;;;;;;;;;;;;6.72;100.00;99352.81;5051433;28;19918;-41
2023/11/10 03:04:41;;;;;;;;;;;;;;;6.71;100.00;99346.63;5051445;28;19951;-41
2023/11/10 03:07:07;;;;;;;;;;;;;;;6.74;100.00;99351.59;5051254;28;19912;-41
2023/11/10 03:09:32;;;;;;;;;;;;;;;6.72;100.00;99342.94;5050593;28;19916;-41
2023/11/10 03:11:57;;;;;;;;;;;;;;;6.71;100.00;99343.94;5054744;28;20019;-41
2023/11/10 03:14:23;;;;;;;;;;;;;;;6.68;100.00;99344.34;5051422;28;20016;-41
2023/11/10 03:16:49;;;;;;;;;;;;;;;6.65;100.00;99344.72;5054801;28;20379;-41
2023/11/10 03:19:14;;;;;;;;;;;;;;;6.65;100.00;99355.44;5055369;28;20295;-41
2023/11/10 03:21:39;;;;;;;;;;;;;;;6.66;100.00;99348.22;5054079;28;19931;-38
2023/11/10 03:24:05;;;;;;;;;;;;;;;6.63;100.00;99354.78;5055037;28;19924;-40
2023/11/10 03:26:30;;;;;;;;;;;;;;;6.63;100.00;99346.75;5055084;28;20436;-40
2023/11/10 03:28:55;;;;;;;;;;;;;;;6.60;100.00;99352.50;5055028;28;19924;-41
2023/11/10 03:31:20;;;;;;;;;;;;;;;6.56;100.00;99349.41;5036401;28;19942;-41
2023/11/10 03:33:46;;;;;;;;;;;;;;;6.55;100.00;99349.56;5055519;28;19975;-40
2023/11/10 03:36:12;;;;;;;;;;;;;;;6.58;100.00;99354.53;5037289;28;19939;-39
2023/11/10 03:38:37;;;;;;;;;;;;;;;6.54;100.00;99353.28;5054604;28;19917;-40
2023/11/10 03:41:02;;;;;;;;;;;;;;;6.57;100.00;99367.09;5054155;28;19923;-40
2023/11/10 03:43:28;;;;;;;;;;;;;;;6.55;100.00;99355.75;5053819;28;19995;-41
2023/11/10 03:45:53;;;;;;;;;;;;;;;6.56;100.00;99345.91;5054502;28;19916;-43
2023/11/10 03:48:18;;;;;;;;;;;;;;;6.56;100.00;99357.41;5054404;28;19913;-41
2023/11/10 03:50:43;;;;;;;;;;;;;;;6.56;100.00;99373.47;5054547;28;19932;-38
2023/11/10 03:53:09;;;;;;;;;;;;;;;6.56;100.00;99353.94;5056020;28;19913;-38
2023/11/10 03:55:34;;;;;;;;;;;;;;;6.54;100.00;99359.44;5057799;28;19920;-39
2023/11/10 03:57:59;;;;;;;;;;;;;;;6.57;100.00;99368.94;5057372;28;20415;-40
2023/11/10 04:00:24;;;;;;;;;;;;;;;6.59;100.00;99366.91;5048291;28;19917;-39
2023/11/10 04:02:49;;;;;;;;;;;;;;;6.62;100.00;99374.53;5034928;28;20340;-40
2023/11/10 04:05:15;;;;;;;;;;;;;;;6.62;100.00;99373.72;5034966;28;20284;-38
2023/11/10 04:07:40;;;;;;;;;;;;;;;6.58;100.00;99365.22;5050675;28;19925;-37
2023/11/10 04:10:05;;;;;;;;;;;;;;;6.57;100.00;99382.28;5049416;28;19923;-37
2023/11/10 04:12:32;;;;;;;;;;;;;;;6.56;100.00;99375.31;5033657;28;20008;-36
2023/11/10 04:14:58;;;;;;;;;;;;;;;6.49;100.00;99377.09;5016311;28;20008;-39
2023/11/10 04:17:23;;;;;;;;;;;;;;;6.45;100.00;99379.31;5033960;28;20422;-38
2023/11/10 04:19:48;;;;;;;;;;;;;;;6.45;100.00;99379.31;5034347;28;19964;-37
2023/11/10 04:22:13;;;;;;;;;;;;;;;6.47;100.00;99379.13;5015462;28;19913;-37
2023/11/10 04:24:40;;;;;;;;;;;;;;;6.46;100.00;99367.59;5034458;28;19920;-38
2023/11/10 04:27:06;;;;;;;;;;;;;;;6.43;100.00;99378.69;5034253;28;19955;-38
2023/11/10 04:29:31;;;;;;;;;;;;;;;6.44;100.00;99379.50;5034524;28;20333;-40
2023/11/10 04:31:56;;;;;;;;;;;;;;;6.46;100.00;99372.13;5034326;28;19916;-40
2023/11/10 04:34:21;;;;;;;;;;;;;;;6.43;100.00;99372.50;5034468;28;20304;-40
2023/11/10 04:36:47;;;;;;;;;;;;;;;6.40;100.00;99371.06;5034039;28;20291;-40
2023/11/10 04:39:12;;;;;;;;;;;;;;;6.41;100.00;99369.19;5034342;28;19913;-41
2023/11/10 04:41:39;;;;;;;;;;;;;;;6.38;100.00;99365.88;5034288;28;19966;-40
2023/11/10 04:44:04;;;;;;;;;;;;;;;6.36;100.00;99365.25;5017105;28;19959;-40
2023/11/10 04:46:31;;;;;;;;;;;;;;;6.37;100.00;99364.25;5034133;28;20388;-40
2023/11/10 04:48:56;;;;;;;;;;;;;;;6.35;100.00;99370.78;5033517;28;19984;-40
2023/11/10 04:51:22;;;;;;;;;;;;;;;6.34;100.00;99364.59;5034039;28;19931;-40
2023/11/10 04:53:47;;;;;;;;;;;;;;;6.32;100.00;99353.28;5033529;28;20008;-38
2023/11/10 04:56:12;;;;;;;;;;;;;;;6.32;100.00;99352.47;5016026;28;19920;-40
2023/11/10 04:58:38;;;;;;;;;;;;;;;6.28;100.00;99360.03;5033722;28;19933;-40
2023/11/10 05:01:03;;;;;;;;;;;;;;;6.27;100.00;99376.25;5033074;28;19924;-39
2023/11/10 05:03:31;;;;;;;;;;;;;;;6.26;100.00;99361.22;5015227;28;19917;-38
2023/11/10 05:05:56;;;;;;;;;;;;;;;6.23;100.00;99358.94;5035245;28;19917;-39
2023/11/10 05:08:21;;;;;;;;;;;;;;;6.24;100.00;99372.13;5053003;28;19912;-40
2023/11/10 05:10:47;;;;;;;;;;;;;;;6.20;100.00;99378.84;5041182;28;19932;-38
2023/11/10 05:13:12;;;;;;;;;;;;;;;6.18;100.00;99370.19;5033154;28;19920;-38
2023/11/10 05:15:38;;;;;;;;;;;;;;;6.20;100.00;99367.34;5035056;28;20359;-40
2023/11/10 05:18:04;;;;;;;;;;;;;;;6.21;100.00;99369.00;5052536;28;19913;-41
2023/11/10 05:20:31;;;;;;;;;;;;;;;6.25;100.00;99368.44;5052907;28;20260;-39
2023/11/10 05:22:57;;;;;;;;;;;;;;;6.30;100.00;99373.22;5035230;28;19917;-40
2023/11/10 05:25:22;;;;;;;;;;;;;;;6.35;100.00;99381.47;5052847;28;19920;-38
2023/11/10 05:27:49;;;;;;;;;;;;;;;6.38;100.00;99395.28;5052376;28;19913;-38
2023/11/10 05:30:14;;;;;;;;;;;;;;;6.41;100.00;99391.41;5044959;28;19956;-39
2023/11/10 05:32:39;;;;;;;;;;;;;;;6.42;100.00;99384.19;5031804;28;20339;-37
2023/11/10 05:35:05;;;;;;;;;;;;;;;6.44;100.00;99392.88;5031842;28;20020;-41
2023/11/10 05:37:31;;;;;;;;;;;;;;;6.41;100.00;99386.06;5032705;28;19923;-43
2023/11/10 05:39:56;;;;;;;;;;;;;;;6.40;100.00;99394.25;5033042;28;20033;-44
2023/11/10 05:42:22;;;;;;;;;;;;;;;6.37;100.00;99385.63;5032448;28;19959;-44
2023/11/10 05:44:47;;;;;;;;;;;;;;;6.36;100.00;99389.28;5032399;28;19925;-44
2023/11/10 05:47:12;;;;;;;;;;;;;;;6.35;100.00;99382.31;5042354;28;20354;-44
2023/11/10 05:49:39;;;;;;;;;;;;;;;6.37;100.00;99379.41;5041228;28;19924;-43
2023/11/10 05:52:04;;;;;;;;;;;;;;;6.38;100.00;99392.59;5044774;28;19999;-41
2023/11/10 05:54:29;;;;;;;;;;;;;;;6.37;100.00;99377.59;5050872;28;20011;-43
2023/11/10 05:56:55;;;;;;;;;;;;;;;6.38;100.00;99375.75;5051965;28;19952;-40
2023/11/10 05:59:21;;;;;;;;;;;;;;;6.37;100.00;99388.28;5052355;28;19919;-41
2023/11/10 06:01:47;;;;;;;;;;;;;;;6.36;100.00;99367.09;5042329;28;20384;-41
2023/11/10 06:04:12;;;;;;;;;;;;;;;6.35;100.00;99381.47;5031306;28;19943;-38
2023/11/10 06:06:38;;;;;;;;;;;;;;;6.34;100.00;99385.97;5034020;28;19917;-40
2023/11/10 06:09:06;;;;;;;;;;;;;;;6.37;100.00;99384.75;5046247;28;19923;-38
2023/11/10 06:11:31;;;;;;;;;;;;;;;6.40;100.00;99386.22;5036291;28;20004;-40
2023/11/10 06:14:00;;;;;;;;;;;;;;;6.42;100.00;99387.69;5043605;28;20028;-39
2023/11/10 06:16:26;;;;;;;;;;;;;;;6.44;100.00;99388.34;5045704;28;19917;-39
2023/11/10 06:18:51;;;;;;;;;;;;;;;6.44;100.00;99384.84;5043741;28;19919;-40
2023/11/10 06:21:21;;;;;;;;;;;;;;;6.46;100.00;99385.50;5051666;28;20007;-41
2023/11/10 06:23:46;;;;;;;;;;;;;;;6.49;100.00;99382.44;5050734;28;20391;-40
2023/11/10 06:26:12;;;;;;;;;;;;;;;6.46;100.00;99386.31;5033765;28;20005;-42
2023/11/10 06:28:37;;;;;;;;;;;;;;;6.46;100.00;99382.81;5040933;28;20011;-40
2023/11/10 06:31:03;;;;;;;;;;;;;;;6.49;100.00;99366.41;5049844;28;20008;-39
2023/11/10 06:33:29;;;;;;;;;;;;;;;6.53;100.00;99384.53;5046232;28;19916;-42
2023/11/10 06:35:54;;;;;;;;;;;;;;;6.55;100.00;99387.00;5046926;28;20019;-41
2023/11/10 06:38:19;;;;;;;;;;;;;;;6.56;100.00;99392.16;5043221;28;19952;-42
2023/11/10 06:40:44;;;;;;;;;;;;;;;6.58;100.00;99408.84;5031114;28;19936;-40
2023/11/10 06:43:10;;;;;;;;;;;;;;;6.58;100.00;99403.50;5035882;28;20026;-41
2023/11/10 06:45:35;;;;;;;;;;;;;;;6.60;100.00;99405.97;5045306;28;20007;-43
2023/11/10 06:48:03;;;;;;;;;;;;;;;6.63;100.00;99405.56;5044217;28;19917;-42
2023/11/10 06:50:30;;;;;;;;;;;;;;;6.59;100.00;99415.00;5052255;28;19916;-43
2023/11/10 06:52:55;;;;;;;;;;;;;;;6.53;100.00;99407.75;5054863;28;19917;-44
2023/11/10 06:55:20;;;;;;;;;;;;;;;6.51;100.00;99402.59;5051803;28;19959;-44
2023/11/10 06:57:46;;;;;;;;;;;;;;;6.48;100.00;99413.69;5041144;28;20078;-42
2023/11/10 07:00:11;;;;;;;;;;;;;;;6.42;100.00;99408.25;5049812;28;20284;-44
2023/11/10 07:02:37;;;;;;;;;;;;;;;6.42;100.00;99419.75;5053578;28;19917;-44
2023/11/10 07:05:02;;;;;;;;;;;;;;;6.42;100.00;99419.75;5054534;28;19916;-43
2023/11/10 07:07:27;;;;;;;;;;;;;;;6.41;100.00;99422.66;5054601;28;19971;-44
2023/11/10 07:09:53;;;;;;;;;;;;;;;6.39;100.00;99436.19;5053684;28;19968;-43
2023/11/10 07:12:18;;;;;;;;;;;;;;;6.37;100.00;99425.69;5044089;28;20015;-43
2023/11/10 07:14:43;;;;;;;;;;;;;;;6.38;100.00;99432.69;5052664;28;19921;-44
2023/11/10 07:17:08;;;;;;;;;;;;;;;6.37;100.00;99431.03;5041976;28;20309;-45
2023/11/10 07:19:34;;;;;;;;;;;;;;;6.38;100.00;99432.69;5041601;28;20283;-44
2023/11/10 07:21:59;;;;;;;;;;;;;;;6.40;100.00;99437.00;5054173;28;19935;-43
2023/11/10 07:24:24;;;;;;;;;;;;;;;6.40;100.00;99432.50;5054324;28;19913;-44
2023/11/10 07:26:49;;;;;;;;;;;;;;;6.39;100.00;99433.50;5054472;28;20287;-44
2023/11/10 07:29:15;;;;;;;;;;;;;;;6.39;100.00;99425.50;5052461;28;20383;-42
2023/11/10 07:31:40;;;;;;;;;;;;;;;6.39;100.00;99433.50;5045305;28;19974;-43
2023/11/10 07:34:05;;;;;;;;;;;;;;;6.42;100.00;99430.47;5059038;28;19916;-43
2023/11/10 07:36:30;;;;;;;;;;;;;;;6.41;100.00;99430.66;5056552;28;19925;-42
2023/11/10 07:38:55;;;;;;;;;;;;;;;6.42;100.00;99430.47;5056561;28;20007;-43
2023/11/10 07:41:21;;;;;;;;;;;;;;;6.45;100.00;99421.22;5067725;28;20008;-41
2023/11/10 07:43:46;;;;;;;;;;;;;;;6.48;100.00;99423.56;5062883;28;20058;-42
2023/11/10 07:46:11;;;;;;;;;;;;;;;6.49;100.00;99425.19;5052911;28;20285;-41
2023/11/10 07:48:37;;;;;;;;;;;;;;;6.49;100.00;99425.19;5052377;28;19937;-39
2023/11/10 07:51:03;;;;;;;;;;;;;;;6.49;100.00;99404.63;5055728;28;19919;-41
2023/11/10 07:53:28;;;;;;;;;;;;;;;6.46;100.00;99414.88;5066905;28;19939;-41
2023/11/10 07:55:54;;;;;;;;;;;;;;;6.46;100.00;99410.38;5058548;28;19955;-41
2023/11/10 07:58:20;;;;;;;;;;;;;;;6.49;100.00;99412.66;5051006;28;20299;-41
2023/11/10 08:00:45;;;;;;;;;;;;;;;6.55;100.00;99403.03;5063717;28;19932;-39
2023/11/10 08:03:11;;;;;;;;;;;;;;;6.58;100.00;99397.31;5052491;28;19913;-39
2023/11/10 08:05:36;;;;;;;;;;;;;;;6.58;100.00;99402.66;5048933;28;19917;-41
2023/11/10 08:08:03;;;;;;;;;;;;;;;6.65;100.00;99389.34;5061908;28;19920;-38
2023/11/10 08:10:29;;;;;;;;;;;;;;;6.59;100.00;99389.09;5058808;28;19948;-41
2023/11/10 08:12:54;;;;;;;;;;;;;;;6.59;100.00;99373.06;5055775;28;20391;-41
2023/11/10 08:15:19;;;;;;;;;;;;;;;6.58;100.00;99370.56;5051347;28;19925;-39
2023/11/10 08:17:44;;;;;;;;;;;;;;;6.58;100.00;99383.94;5056396;28;19994;-37
2023/11/10 08:20:10;;;;;;;;;;;;;;;6.59;100.00;99372.25;5062581;28;20296;-37
2023/11/10 08:22:35;;;;;;;;;;;;;;;6.57;100.00;99375.09;5054207;28;19923;-38
2023/11/10 08:25:03;;;;;;;;;;;;;;;6.58;100.00;99375.91;5064033;28;19919;-37
2023/11/10 08:27:31;;;;;;;;;;;;;;;6.57;100.00;99352.91;5063554;28;19935;-40
2023/11/10 08:29:56;;;;;;;;;;;;;;;6.59;100.00;99346.34;5059496;28;19983;-38
2023/11/10 08:32:21;;;;;;;;;;;;;;;6.60;100.00;99352.50;5054660;28;19920;-39
2023/11/10 08:34:47;;;;;;;;;;;;;;;6.59;100.00;99351.69;5032949;28;20019;-39
2023/11/10 08:37:12;;;;;;;;;;;;;;;6.60;100.00;99355.19;5056901;28;19924;-37
2023/11/10 08:39:37;;;;;;;;;;;;;;;6.58;100.00;99365.22;5065371;28;19916;-40
2023/11/10 08:42:03;;;;;;;;;;;;;;;6.61;100.00;99351.50;5056227;28;19980;-40
2023/11/10 08:44:29;;;;;;;;;;;;;;;6.66;100.00;99350.91;5062286;28;19950;-42
2023/11/10 08:46:54;;;;;;;;;;;;;;;6.59;100.00;99362.38;5069718;28;20340;-43
2023/11/10 08:49:20;;;;;;;;;;;;;;;6.59;100.00;99361.56;5059407;28;20425;-43
2023/11/10 08:51:45;;;;;;;;;;;;;;;6.56;100.00;99356.59;5061398;28;19924;-42
2023/11/10 08:54:10;;;;;;;;;;;;;;;6.59;100.00;99366.91;5068754;28;19923;-43
2023/11/10 08:56:35;;;;;;;;;;;;;;;6.63;100.00;99354.78;5063685;28;19919;-42
2023/11/10 08:59:01;;;;;;;;;;;;;;;6.62;100.00;99353.16;5049734;28;19912;-41
2023/11/10 09:01:27;;;;;;;;;;;;;;;6.66;100.00;99357.09;5054330;28;19919;-41
2023/11/10 09:03:52;;;;;;;;;;;;;;;6.69;100.00;99350.50;5050503;28;19916;-40
2023/11/10 09:06:18;;;;;;;;;;;;;;;6.71;100.00;99357.31;5052590;28;19924;-40
2023/11/10 09:08:43;;;;;;;;;;;;;;;6.75;100.00;99350.56;5048865;28;20008;-40
2023/11/10 09:11:08;;;;;;;;;;;;;;;6.75;100.00;99355.94;5054977;28;20007;-38
2023/11/10 09:13:33;;;;;;;;;;;;;;;6.76;100.00;99346.06;5058443;28;19998;-37
2023/11/10 09:15:59;;;;;;;;;;;;;;;6.76;100.00;99344.19;5060405;28;19920;-39
2023/11/10 09:18:25;;;;;;;;;;;;;;;6.81;100.00;99347.13;5031176;28;20267;-38
2023/11/10 09:20:50;;;;;;;;;;;;;;;6.82;100.00;99346.13;5066423;28;19912;-37
2023/11/10 09:23:15;;;;;;;;;;;;;;;6.88;100.00;99338.34;5062051;28;19920;-38
2023/11/10 09:25:40;;;;;;;;;;;;;;;6.86;100.00;99330.50;5052208;28;19919;-40
2023/11/10 09:28:06;;;;;;;;;;;;;;;6.87;100.00;99342.00;5062031;28;19998;-38
2023/11/10 09:30:33;;;;;;;;;;;;;;;6.89;100.00;99330.09;5060261;28;19924;-40
2023/11/10 09:32:59;;;;;;;;;;;;;;;6.98;100.00;99330.81;5032160;28;20363;-41
2023/11/10 09:35:26;;;;;;;;;;;;;;;6.98;100.00;99325.44;5059271;28;19916;-39
2023/11/10 09:37:51;;;;;;;;;;;;;;;7.00;100.00;99321.56;5049102;28;19912;-39
2023/11/10 09:40:19;;;;;;;;;;;;;;;7.03;100.00;99313.13;5062994;28;20363;-39
2023/11/10 09:42:44;;;;;;;;;;;;;;;7.08;100.00;99323.22;5067708;28;19970;-40
2023/11/10 09:45:12;;;;;;;;;;;;;;;7.07;100.00;99316.22;5058760;28;19917;-40
2023/11/10 09:47:40;;;;;;;;;;;;;;;7.14;100.00;99306.41;5056252;28;19921;-41
2023/11/10 09:50:07;;;;;;;;;;;;;;;7.19;100.00;99317.34;5032706;28;19913;-40
2023/11/10 09:52:34;;;;;;;;;;;;;;;7.24;100.00;99306.88;5052844;28;20363;-40
2023/11/10 09:54:59;;;;;;;;;;;;;;;7.29;100.00;99308.13;5037571;28;20019;-39
2023/11/10 09:57:25;;;;;;;;;;;;;;;7.41;100.00;99306.53;5068889;28;20426;-40
2023/11/10 09:59:51;;;;;;;;;;;;;;;7.35;100.00;99313.50;5029897;28;19933;-38
2023/11/10 10:02:17;;;;;;;;;;;;;;;7.37;100.00;99332.03;5022735;28;19947;-39
2023/11/10 10:04:43;;;;;;;;;;;;;;;7.35;100.00;99331.44;5059229;28;19951;-41
2023/11/10 10:07:08;;;;;;;;;;;;;;;7.37;100.00;99322.19;5049292;28;19971;-38
2023/11/10 10:09:34;;;;;;;;;;;;;;;7.43;100.00;99325.91;5047437;28;19924;-41
2023/11/10 10:11:59;;;;;;;;;;;;;;;7.46;100.00;99320.16;5058236;28;19979;-41
2023/11/10 10:14:24;;;;;;;;;;;;;;;7.43;100.00;99317.88;5056291;28;20567;-41
2023/11/10 10:16:50;;;;;;;;;;;;;;;7.45;100.00;99313.13;5055374;28;20288;-41
2023/11/10 10:19:22;;;;;;;;;;;;;;;7.39;100.00;99316.59;5064285;28;20299;-37
2023/11/10 10:21:48;;;;;;;;;;;;;;;7.43;100.00;99309.84;5057644;28;20268;-40
2023/11/10 10:24:13;;;;;;;;;;;;;;;7.46;100.00;99314.81;5054367;28;20387;-40
2023/11/10 10:26:38;;;;;;;;;;;;;;;7.47;100.00;99311.09;5054439;28;19916;-39
2023/11/10 10:29:03;;;;;;;;;;;;;;;7.49;100.00;99301.00;5023165;28;19917;-40
2023/11/10 10:31:29;;;;;;;;;;;;;;;7.49;100.00;99309.03;5028766;28;20323;-41
2023/11/10 10:33:55;;;;;;;;;;;;;;;7.46;100.00;99310.25;5029364;28;20378;-40
2023/11/10 10:36:20;;;;;;;;;;;;;;;7.51;100.00;99319.56;5050240;28;19924;-39
2023/11/10 10:38:47;;;;;;;;;;;;;;;7.53;100.00;99323.69;5032426;28;19924;-41
2023/11/10 10:41:14;;;;;;;;;;;;;;;7.52;100.00;99314.00;5029897;28;19996;-40
2023/11/10 10:43:39;;;;;;;;;;;;;;;7.56;100.00;99315.25;5047868;28;20418;-38
2023/11/10 10:46:05;;;;;;;;;;;;;;;7.57;100.00;99310.72;5051410;28;19924;-39
2023/11/10 10:48:30;;;;;;;;;;;;;;;7.57;100.00;99316.91;5028831;28;19917;-41
2023/11/10 10:50:56;;;;;;;;;;;;;;;7.61;100.00;99306.59;5038253;28;19912;-42
2023/11/10 10:53:21;;;;;;;;;;;;;;;7.59;100.00;99309.50;5034388;28;20323;-40
2023/11/10 10:55:50;;;;;;;;;;;;;;;7.60;100.00;99305.78;5066065;28;19970;-39
2023/11/10 10:58:16;;;;;;;;;;;;;;;7.61;100.00;99307.44;5051145;28;20310;-41
2023/11/10 11:00:41;;;;;;;;;;;;;;;7.66;100.00;99306.81;5032180;28;19923;-40
2023/11/10 11:03:25;;;;;;;;;;;;;;;7.65;100.00;99311.38;5051507;28;19924;-39
2023/11/10 11:06:02;;;;;;;;;;;;;;;7.65;100.00;99303.31;5046047;28;19942;-41
2023/11/10 11:08:33;;;;;;;;;;;;;;;7.67;100.00;99320.03;5061729;28;19967;-39
2023/11/10 11:11:05;;;;;;;;;;;;;;;7.59;100.00;99335.44;5047597;28;19927;-39
2023/11/10 11:13:34;;;;;;;;;;;;;;;7.53;100.00;99347.78;5025510;28;20375;-42
2023/11/10 11:16:07;;;;;;;;;;;;;;;7.42;100.00;99345.66;5056234;28;19916;-40
2023/11/10 11:18:40;;;;;;;;;;;;;;;7.33;100.00;99353.03;5033096;28;19940;-44
2023/11/10 11:21:07;;;;;;;;;;;;;;;7.28;100.00;99360.00;5048079;28;20284;-43
2023/11/10 11:23:33;;;;;;;;;;;;;;;7.22;100.00;99349.06;5031813;28;20275;-44
2023/11/10 11:26:01;;;;;;;;;;;;;;;7.22;100.00;99357.09;5058246;28;19909;-44
2023/11/10 11:28:31;;;;;;;;;;;;;;;7.23;100.00;99358.72;5047506;28;19917;-44
2023/11/10 11:31:09;;;;;;;;;;;;;;;7.18;100.00;99371.88;5052128;28;19913;-43
2023/11/10 11:33:35;;;;;;;;;;;;;;;7.17;100.00;99369.41;5050257;28;19924;-44
2023/11/10 11:36:00;;;;;;;;;;;;;;;7.17;100.00;99377.44;5046505;28;20321;-43
2023/11/10 11:38:26;;;;;;;;;;;;;;;7.17;100.00;99375.56;5054650;28;19978;-43
2023/11/10 11:40:51;;;;;;;;;;;;;;;7.19;100.00;99378.06;5042814;28;20008;-43
2023/11/10 11:43:20;;;;;;;;;;;;;;;7.19;100.00;99367.38;5052910;28;20014;-43
2023/11/10 11:45:46;;;;;;;;;;;;;;;7.18;100.00;99371.88;5048744;28;20383;-43
2023/11/10 11:48:12;;;;;;;;;;;;;;;7.17;100.00;99388.94;5053881;28;19921;-43
2023/11/10 11:50:37;;;;;;;;;;;;;;;7.18;100.00;99376.38;5029404;28;19967;-43
2023/11/10 11:53:03;;;;;;;;;;;;;;;7.21;100.00;99384.03;5038286;28;19916;-43
2023/11/10 11:55:29;;;;;;;;;;;;;;;7.24;100.00;99371.09;5045240;28;19935;-43
2023/11/10 11:57:54;;;;;;;;;;;;;;;7.29;100.00;99383.03;5048290;28;20364;-43
2023/11/10 12:00:19;;;;;;;;;;;;;;;7.34;100.00;99383.28;5047271;28;19921;-43
2023/11/10 12:02:45;;;;;;;;;;;;;;;7.43;100.00;99374.09;5021291;28;20360;-45
2023/11/10 12:05:13;;;;;;;;;;;;;;;7.41;100.00;99378.81;5046844;28;19996;-41
2023/11/10 12:07:38;;;;;;;;;;;;;;;7.43;100.00;99395.50;5040414;28;20400;-41
2023/11/10 12:10:03;;;;;;;;;;;;;;;7.39;100.00;99396.91;5043779;28;19943;-41
2023/11/10 12:12:29;;;;;;;;;;;;;;;7.43;100.00;99395.50;5038310;28;20275;-40
2023/11/10 12:14:54;;;;;;;;;;;;;;;7.45;100.00;99382.72;5041894;28;19920;-40
2023/11/10 12:17:19;;;;;;;;;;;;;;;7.51;100.00;99381.94;5046453;28;19917;-40
2023/11/10 12:19:44;;;;;;;;;;;;;;;7.42;100.00;99377.78;5038486;28;20039;-40
2023/11/10 12:22:09;;;;;;;;;;;;;;;7.49;100.00;99375.97;5049581;28;20011;-40
2023/11/10 12:24:35;;;;;;;;;;;;;;;7.53;100.00;99371.88;5046648;28;19952;-39
2023/11/10 12:27:01;;;;;;;;;;;;;;;7.57;100.00;99366.94;5040851;28;20007;-39
2023/11/10 12:29:29;;;;;;;;;;;;;;;7.60;100.00;99386.09;5024306;28;20355;-40
2023/11/10 12:31:55;;;;;;;;;;;;;;;7.72;100.00;99389.06;5047249;28;20003;-40
2023/11/10 12:34:22;;;;;;;;;;;;;;;7.74;100.00;99392.38;5036272;28;19959;-39
2023/11/10 12:36:48;;;;;;;;;;;;;;;7.75;100.00;99390.50;5051740;28;19966;-39
2023/11/10 12:39:19;;;;;;;;;;;;;;;7.72;100.00;99390.91;5056000;28;19913;-38